createdAt,value
2018-03-26T00:02:27.616Z,35.67
2018-03-26T00:04:56.797Z,35.17
2018-03-26T00:07:25.941Z,33.40
2018-03-26T00:09:55.109Z,33.27
2018-03-26T00:12:24.244Z,33.20
2018-03-26T00:14:53.642Z,34.03
2018-03-26T00:17:22.787Z,32.97
2018-03-26T00:19:51.926Z,34.47
2018-03-26T00:22:21.121Z,33.80
2018-03-26T00:24:50.258Z,35.83
2018-03-26T00:27:19.390Z,33.73
2018-03-26T00:29:48.569Z,32.10
2018-03-26T00:32:17.705Z,30.00
2018-03-26T00:34:46.867Z,32.87
2018-03-26T00:37:16.045Z,31.77
2018-03-26T00:39:45.302Z,35.07
2018-03-26T00:42:14.448Z,40.60
2018-03-26T00:44:43.594Z,37.77
2018-03-26T00:47:12.759Z,35.80
2018-03-26T00:49:41.907Z,37.47
2018-03-26T00:52:11.044Z,40.00
2018-03-26T00:54:40.233Z,37.63
2018-03-26T00:57:09.364Z,39.20
2018-03-26T00:59:38.511Z,34.87
2018-03-26T01:02:07.683Z,36.43
2018-03-26T01:04:36.821Z,34.73
2018-03-26T01:07:05.970Z,32.10
2018-03-26T01:09:35.163Z,33.57
2018-03-26T01:12:04.301Z,33.60
2018-03-26T01:14:33.505Z,35.97
2018-03-26T01:17:02.793Z,37.60
2018-03-26T01:19:31.933Z,37.77
2018-03-26T01:22:01.105Z,40.60
2018-03-26T01:24:30.237Z,39.40
2018-03-26T01:26:59.397Z,41.47
2018-03-26T01:29:28.545Z,41.43
2018-03-26T01:31:57.714Z,41.73
2018-03-26T01:34:26.893Z,40.90
2018-03-26T01:36:56.034Z,42.00
2018-03-26T01:39:25.176Z,42.40
2018-03-26T01:41:54.349Z,40.53
2018-03-26T01:44:23.502Z,43.57
2018-03-26T01:46:52.650Z,41.90
2018-03-26T01:49:21.789Z,43.63
2018-03-26T01:51:50.937Z,42.43
2018-03-26T01:54:20.184Z,40.43
2018-03-26T01:56:49.333Z,42.47
2018-03-26T01:59:18.472Z,41.10
2018-03-26T02:01:47.646Z,39.87
2018-03-26T02:04:16.790Z,38.93
2018-03-26T02:06:45.918Z,41.83
2018-03-26T02:09:15.097Z,41.97
2018-03-26T02:11:44.249Z,43.67
2018-03-26T02:14:13.401Z,44.47
2018-03-26T02:16:42.574Z,44.07
2018-03-26T02:19:12.095Z,42.70
2018-03-26T02:21:41.237Z,42.70
2018-03-26T02:24:10.424Z,43.27
2018-03-26T02:26:39.585Z,43.43
2018-03-26T02:29:08.771Z,44.60
2018-03-26T02:31:37.922Z,46.63
2018-03-26T02:34:07.074Z,44.17
2018-03-26T02:36:36.292Z,41.80
2018-03-26T02:39:05.438Z,44.30
2018-03-26T02:41:34.601Z,47.27
2018-03-26T02:44:03.849Z,45.97
2018-03-26T02:46:33.004Z,45.37
2018-03-26T02:49:02.143Z,43.53
2018-03-26T02:51:31.317Z,40.83
2018-03-26T02:54:00.462Z,40.53
2018-03-26T02:56:29.600Z,37.97
2018-03-26T02:58:58.786Z,38.83
2018-03-26T03:01:27.926Z,34.00
2018-03-26T03:03:57.103Z,37.17
2018-03-26T03:06:26.290Z,40.03
2018-03-26T03:08:55.501Z,37.67
2018-03-26T03:11:24.640Z,38.27
2018-03-26T03:13:53.879Z,36.23
2018-03-26T03:16:23.033Z,36.77
2018-03-26T03:18:52.171Z,35.73
2018-03-26T03:21:21.333Z,36.30
2018-03-26T03:23:50.486Z,37.97
2018-03-26T03:26:19.652Z,36.07
2018-03-26T03:28:48.802Z,38.40
2018-03-26T03:31:17.955Z,37.00
2018-03-26T03:33:47.158Z,37.77
2018-03-26T03:36:16.306Z,35.87
2018-03-26T03:38:45.480Z,35.70
2018-03-26T03:41:14.669Z,32.73
2018-03-26T03:43:43.819Z,36.73
2018-03-26T03:46:13.431Z,37.10
2018-03-26T03:48:42.582Z,35.90
2018-03-26T03:51:11.720Z,34.97
2018-03-26T03:53:40.919Z,35.80
2018-03-26T03:56:10.075Z,36.83
2018-03-26T03:58:39.244Z,35.40
2018-03-26T04:01:08.711Z,35.07
2018-03-26T04:03:37.859Z,34.53
2018-03-26T04:06:07.033Z,32.30
2018-03-26T04:08:36.168Z,34.97
2018-03-26T04:11:05.306Z,35.93
2018-03-26T04:13:34.471Z,33.63
2018-03-26T04:16:03.631Z,36.60
2018-03-26T04:18:32.786Z,37.00
2018-03-26T04:21:01.963Z,36.37
2018-03-26T04:23:31.122Z,37.80
2018-03-26T04:26:00.268Z,39.83
2018-03-26T04:28:29.442Z,37.47
2018-03-26T04:30:58.574Z,36.80
2018-03-26T04:33:27.754Z,37.83
2018-03-26T04:35:56.922Z,37.20
2018-03-26T04:38:26.065Z,39.63
2018-03-26T04:40:55.259Z,41.70
2018-03-26T04:43:24.406Z,39.27
2018-03-26T04:45:54.270Z,39.07
2018-03-26T04:48:23.446Z,38.00
2018-03-26T04:50:53.014Z,37.07
2018-03-26T04:53:22.162Z,35.93
2018-03-26T04:55:51.337Z,35.80
2018-03-26T04:58:20.557Z,36.80
2018-03-26T05:00:49.700Z,36.80
2018-03-26T05:03:18.837Z,37.80
2018-03-26T05:05:48.015Z,38.20
2018-03-26T05:08:17.158Z,39.03
2018-03-26T05:10:46.304Z,38.90
2018-03-26T05:13:15.472Z,37.40
2018-03-26T05:15:44.678Z,37.40
2018-03-26T05:18:13.821Z,38.47
2018-03-26T05:20:43.017Z,35.63
2018-03-26T05:23:12.168Z,36.00
2018-03-26T05:25:41.321Z,36.43
2018-03-26T05:28:10.490Z,37.80
2018-03-26T05:30:39.637Z,37.97
2018-03-26T05:33:08.774Z,37.17
2018-03-26T05:35:38.037Z,39.87
2018-03-26T05:38:07.216Z,39.30
2018-03-26T05:40:36.358Z,38.80
2018-03-26T05:43:05.537Z,38.97
2018-03-26T05:45:34.685Z,37.67
2018-03-26T05:48:03.841Z,39.77
2018-03-26T05:50:33.038Z,38.03
2018-03-26T05:53:02.213Z,38.40
2018-03-26T05:55:31.405Z,37.40
2018-03-26T05:58:00.553Z,37.30
2018-03-26T06:00:29.694Z,38.17
2018-03-26T06:02:58.889Z,37.10
2018-03-26T06:05:28.042Z,36.80
2018-03-26T06:07:57.187Z,35.97
2018-03-26T06:10:26.387Z,35.20
2018-03-26T06:12:56.049Z,34.53
2018-03-26T06:15:25.210Z,32.20
2018-03-26T06:17:54.426Z,31.10
2018-03-26T06:20:25.492Z,32.20
2018-03-26T06:22:54.676Z,30.90
2018-03-26T06:25:23.819Z,32.27
2018-03-26T06:27:52.963Z,32.30
2018-03-26T06:30:22.166Z,29.60
2018-03-26T06:32:51.326Z,29.40
2018-03-26T06:35:20.496Z,30.27
2018-03-26T06:37:54.423Z,29.17
2018-03-26T06:40:23.566Z,28.03
2018-03-26T06:42:52.708Z,29.83
2018-03-26T06:45:21.966Z,29.00
2018-03-26T06:47:51.104Z,30.97
2018-03-26T06:50:20.261Z,33.50
2018-03-26T06:52:49.412Z,32.20
2018-03-26T06:55:19.117Z,33.70
2018-03-26T06:57:48.489Z,33.87
2018-03-26T07:00:17.640Z,33.97
2018-03-26T07:02:46.773Z,31.77
2018-03-26T07:05:15.994Z,35.10
2018-03-26T07:07:45.136Z,36.07
2018-03-26T07:10:14.313Z,36.30
2018-03-26T07:12:43.502Z,38.00
2018-03-26T07:15:12.673Z,40.33
2018-03-26T07:20:23.087Z,37.87
2018-03-26T07:22:52.273Z,38.10
2018-03-26T07:25:21.429Z,38.83
2018-03-26T07:27:50.603Z,39.20
2018-03-26T07:30:19.762Z,38.43
2018-03-26T07:32:48.914Z,37.60
2018-03-26T07:35:18.232Z,38.10
2018-03-26T07:37:47.411Z,39.23
2018-03-26T07:40:16.558Z,38.70
2018-03-26T07:42:45.804Z,36.70
2018-03-26T07:45:14.956Z,38.03
2018-03-26T07:47:44.108Z,35.47
2018-03-26T07:50:13.293Z,36.70
2018-03-26T07:52:42.431Z,35.90
2018-03-26T07:55:11.594Z,36.17
2018-03-26T07:57:40.985Z,34.50
2018-03-26T08:00:10.737Z,36.60
2018-03-26T08:02:39.877Z,34.63
2018-03-26T08:05:09.109Z,37.70
2018-03-26T08:07:38.270Z,33.83
2018-03-26T08:10:07.453Z,35.03
2018-03-26T08:12:36.593Z,36.10
2018-03-26T08:15:05.744Z,34.70
2018-03-26T08:17:34.910Z,34.80
2018-03-26T08:20:04.050Z,35.47
2018-03-26T08:22:33.196Z,36.60
2018-03-26T08:25:02.362Z,33.40
2018-03-26T08:27:31.520Z,36.33
2018-03-26T08:30:00.729Z,36.67
2018-03-26T08:32:29.886Z,35.43
2018-03-26T08:34:59.029Z,35.50
2018-03-26T08:37:28.254Z,35.60
2018-03-26T08:39:57.450Z,37.57
2018-03-26T08:42:26.696Z,36.10
2018-03-26T08:44:55.788Z,37.10
2018-03-26T08:47:24.978Z,35.77
2018-03-26T08:49:54.211Z,35.70
2018-03-26T08:52:23.288Z,35.47
2018-03-26T08:54:52.453Z,37.90
2018-03-26T08:57:21.600Z,40.03
2018-03-26T08:59:50.754Z,42.27
2018-03-26T09:02:20.001Z,39.63
2018-03-26T09:04:49.152Z,42.83
2018-03-26T09:07:18.317Z,41.27
2018-03-26T09:09:47.522Z,39.70
2018-03-26T09:12:16.675Z,42.00
2018-03-26T09:14:45.877Z,41.93
2018-03-26T09:17:15.098Z,42.50
2018-03-26T09:19:44.415Z,40.60
2018-03-26T09:22:13.667Z,40.70
2018-03-26T09:24:42.830Z,40.50
2018-03-26T09:27:12.002Z,39.43
2018-03-26T09:29:41.176Z,41.10
2018-03-26T09:32:10.334Z,41.57
2018-03-26T09:34:39.469Z,44.17
2018-03-26T09:37:08.630Z,41.97
2018-03-26T09:39:37.891Z,42.77
2018-03-26T09:42:07.028Z,42.57
2018-03-26T09:44:36.194Z,40.93
2018-03-26T09:47:05.379Z,42.77
2018-03-26T09:49:34.523Z,43.50
2018-03-26T09:52:03.697Z,43.23
2018-03-26T09:54:32.874Z,43.13
2018-03-26T09:57:02.027Z,42.30
2018-03-26T09:59:31.176Z,44.37
2018-03-26T10:02:00.345Z,43.90
2018-03-26T10:04:29.483Z,44.00
2018-03-26T10:06:58.620Z,42.00
2018-03-26T10:09:27.792Z,42.13
2018-03-26T10:11:56.930Z,43.77
2018-03-26T10:14:26.075Z,42.03
2018-03-26T10:16:55.333Z,41.60
2018-03-26T10:19:24.487Z,43.67
2018-03-26T10:21:53.634Z,44.03
2018-03-26T10:24:22.962Z,40.77
2018-03-26T10:26:52.138Z,41.80
2018-03-26T10:29:21.289Z,47.30
2018-03-26T10:31:50.461Z,45.00
2018-03-26T10:34:19.613Z,45.73
2018-03-26T10:36:48.743Z,45.97
2018-03-26T10:39:17.916Z,44.60
2018-03-26T10:41:47.063Z,45.07
2018-03-26T10:44:16.242Z,44.50
2018-03-26T10:46:45.394Z,44.60
2018-03-26T10:49:14.541Z,44.60
2018-03-26T10:51:43.719Z,43.70
2018-03-26T10:54:12.863Z,43.10
2018-03-26T10:56:42.006Z,43.37
2018-03-26T10:59:11.573Z,41.77
2018-03-26T11:01:40.722Z,40.57
2018-03-26T11:04:09.881Z,42.63
2018-03-26T11:06:39.168Z,40.90
2018-03-26T11:09:08.320Z,41.67
2018-03-26T11:11:37.470Z,41.03
2018-03-26T11:14:06.636Z,39.03
2018-03-26T11:16:35.784Z,39.80
2018-03-26T11:19:04.926Z,40.03
2018-03-26T11:21:34.119Z,41.13
2018-03-26T11:24:03.333Z,41.23
2018-03-26T11:26:32.474Z,40.30
2018-03-26T11:29:01.621Z,39.90
2018-03-26T11:31:30.809Z,39.53
2018-03-26T11:33:59.954Z,38.03
2018-03-26T11:36:29.096Z,38.43
2018-03-26T11:38:58.268Z,39.17
2018-03-26T11:41:27.422Z,38.37
2018-03-26T11:43:56.570Z,38.57
2018-03-26T11:46:25.738Z,36.80
2018-03-26T11:48:54.892Z,35.63
2018-03-26T11:51:24.059Z,36.50
2018-03-26T11:53:53.198Z,36.33
2018-03-26T11:56:22.356Z,40.20
2018-03-26T11:58:51.545Z,37.00
2018-03-26T12:01:20.881Z,48.50
2018-03-26T12:03:50.022Z,39.07
2018-03-26T12:06:19.170Z,39.60
2018-03-26T12:08:48.338Z,39.30
2018-03-26T12:11:17.503Z,42.00
2018-03-26T12:13:46.674Z,57.23
2018-03-26T12:16:15.854Z,42.47
2018-03-26T12:18:45.009Z,41.27
2018-03-26T12:21:14.156Z,44.37
2018-03-26T12:23:49.154Z,40.47
2018-03-26T12:26:18.432Z,43.13
2018-03-26T12:28:53.383Z,42.90
2018-03-26T12:31:22.575Z,47.23
2018-03-26T12:33:57.465Z,43.40
2018-03-26T12:36:26.704Z,40.43
2018-03-26T12:38:55.873Z,43.93
2018-03-26T12:41:25.026Z,43.87
2018-03-26T12:43:54.177Z,42.70
2018-03-26T12:46:29.334Z,44.90
2018-03-26T12:48:58.497Z,42.60
2018-03-26T12:51:33.586Z,45.37
2018-03-26T12:54:02.738Z,44.80
2018-03-26T12:56:31.890Z,45.70
2018-03-26T12:59:01.092Z,44.57
2018-03-26T13:01:36.187Z,43.90
2018-03-26T13:04:05.351Z,51.40
2018-03-26T13:06:34.501Z,45.60
2018-03-26T13:09:03.653Z,46.00
2018-03-26T13:11:32.850Z,45.07
2018-03-26T13:14:01.982Z,46.90
2018-03-26T13:16:31.113Z,46.77
2018-03-26T13:19:00.279Z,44.60
2018-03-26T13:21:29.451Z,45.80
2018-03-26T13:23:58.597Z,45.20
2018-03-26T13:26:27.787Z,46.67
2018-03-26T13:28:56.955Z,44.37
2018-03-26T13:31:26.102Z,44.13
2018-03-26T13:33:55.291Z,43.40
2018-03-26T13:36:24.425Z,49.57
2018-03-26T13:38:53.571Z,43.13
2018-03-26T13:41:22.745Z,49.67
2018-03-26T13:43:51.892Z,50.60
2018-03-26T13:46:21.037Z,54.20
2018-03-26T13:48:50.219Z,41.63
2018-03-26T13:51:19.389Z,43.73
2018-03-26T13:53:48.543Z,46.37
2018-03-26T13:56:17.718Z,44.80
2018-03-26T13:58:46.864Z,45.43
2018-03-26T14:01:16.108Z,43.00
2018-03-26T14:03:45.773Z,43.67
2018-03-26T14:06:14.912Z,42.30
2018-03-26T14:08:49.930Z,43.43
2018-03-26T14:11:37.955Z,43.60
2018-03-26T14:14:13.144Z,46.10
2018-03-26T14:16:48.242Z,44.07
2018-03-26T14:19:17.422Z,49.40
2018-03-26T14:21:46.583Z,44.50
2018-03-26T14:24:15.797Z,44.40
2018-03-26T14:26:44.937Z,42.03
2018-03-26T14:29:14.077Z,44.10
2018-03-26T14:31:43.262Z,46.03
2018-03-26T14:34:12.406Z,46.43
2018-03-26T14:36:41.590Z,46.20
2018-03-26T14:39:10.806Z,45.20
2018-03-26T14:41:39.960Z,46.23
2018-03-26T14:44:09.101Z,44.30
2018-03-26T14:46:38.281Z,48.97
2018-03-26T14:49:07.451Z,53.33
2018-03-26T14:51:36.599Z,46.17
2018-03-26T14:54:05.750Z,49.97
2018-03-26T14:56:34.900Z,53.77
2018-03-26T14:59:04.041Z,58.37
2018-03-26T15:01:33.202Z,54.47
2018-03-26T15:04:02.397Z,50.90
2018-03-26T15:06:31.604Z,53.77
2018-03-26T15:09:00.798Z,54.67
2018-03-26T15:11:30.028Z,55.57
2018-03-26T15:13:59.162Z,57.37
2018-03-26T15:16:28.330Z,57.50
2018-03-26T15:18:57.501Z,114.40
2018-03-26T15:21:26.675Z,49.70
2018-03-26T15:23:55.830Z,51.50
2018-03-26T15:26:25.010Z,50.10
2018-03-26T15:28:54.189Z,51.67
2018-03-26T15:31:23.324Z,55.20
2018-03-26T15:33:52.486Z,52.33
2018-03-26T15:36:21.685Z,53.80
2018-03-26T15:38:50.830Z,58.97
2018-03-26T15:41:19.975Z,72.00
2018-03-26T15:43:49.150Z,55.10
2018-03-26T15:46:18.295Z,54.90
2018-03-26T15:48:47.457Z,70.00
2018-03-26T15:51:16.649Z,59.60
2018-03-26T15:53:45.790Z,57.63
2018-03-26T15:56:14.930Z,58.73
2018-03-26T15:58:44.074Z,55.17
2018-03-26T16:01:13.263Z,57.77
2018-03-26T16:03:42.402Z,63.57
2018-03-26T16:06:11.716Z,58.27
2018-03-26T16:08:40.913Z,70.03
2018-03-26T16:11:10.052Z,66.17
2018-03-26T16:13:39.200Z,59.67
2018-03-26T16:16:08.379Z,65.47
2018-03-26T16:18:39.463Z,56.43
2018-03-26T16:21:08.682Z,58.57
2018-03-26T16:23:37.811Z,62.30
2018-03-26T16:26:07.008Z,57.93
2018-03-26T16:28:36.150Z,57.30
2018-03-26T16:31:05.314Z,58.57
2018-03-26T16:33:34.491Z,58.97
2018-03-26T16:36:03.643Z,58.20
2018-03-26T16:38:32.788Z,58.50
2018-03-26T16:41:01.965Z,58.87
2018-03-26T16:43:31.112Z,57.70
2018-03-26T16:46:00.298Z,60.60
2018-03-26T16:48:29.453Z,64.57
2018-03-26T16:50:58.673Z,58.87
2018-03-26T16:53:27.822Z,59.70
2018-03-26T16:55:56.968Z,62.10
2018-03-26T16:58:26.142Z,62.13
2018-03-26T17:00:55.282Z,62.00
2018-03-26T17:03:24.428Z,62.37
2018-03-26T17:05:53.593Z,60.37
2018-03-26T17:08:23.309Z,67.33
2018-03-26T17:10:52.694Z,62.23
2018-03-26T17:13:21.829Z,60.43
2018-03-26T17:15:50.970Z,60.03
2018-03-26T17:18:20.113Z,58.90
2018-03-26T17:20:49.284Z,58.53
2018-03-26T17:23:18.433Z,56.00
2018-03-26T17:25:47.570Z,53.13
2018-03-26T17:28:16.737Z,55.10
2018-03-26T17:30:45.876Z,53.57
2018-03-26T17:33:15.059Z,51.50
2018-03-26T17:35:44.237Z,49.80
2018-03-26T17:38:13.428Z,51.97
2018-03-26T17:40:42.571Z,51.50
2018-03-26T17:43:11.760Z,52.70
2018-03-26T17:45:40.913Z,57.70
2018-03-26T17:48:10.047Z,53.77
2018-03-26T17:50:39.225Z,52.37
2018-03-26T17:53:08.368Z,52.50
2018-03-26T17:55:37.754Z,51.90
2018-03-26T17:58:06.932Z,53.10
2018-03-26T18:00:36.111Z,48.27
2018-03-26T18:03:05.251Z,49.90
2018-03-26T18:05:34.396Z,47.60
2018-03-26T18:08:03.580Z,45.63
2018-03-26T18:10:32.727Z,49.13
2018-03-26T18:13:01.904Z,47.40
2018-03-26T18:15:31.094Z,52.00
2018-03-26T18:18:00.248Z,49.70
2018-03-26T18:20:29.395Z,48.10
2018-03-26T18:22:58.574Z,51.70
2018-03-26T18:25:27.721Z,48.50
2018-03-26T18:27:56.872Z,52.40
2018-03-26T18:30:26.058Z,52.60
2018-03-26T18:32:55.202Z,55.43
2018-03-26T18:35:24.346Z,57.77
2018-03-26T18:37:53.516Z,54.37
2018-03-26T18:40:22.686Z,57.37
2018-03-26T18:42:51.817Z,58.30
2018-03-26T18:45:20.972Z,59.53
2018-03-26T18:47:50.141Z,65.87
2018-03-26T18:50:19.289Z,72.37
2018-03-26T18:52:48.442Z,71.40
2018-03-26T18:55:17.628Z,70.87
2018-03-26T18:57:46.784Z,63.90
2018-03-26T19:00:16.036Z,66.80
2018-03-26T19:02:45.173Z,84.43
2018-03-26T19:05:14.318Z,87.67
2018-03-26T19:07:43.492Z,77.63
2018-03-26T19:10:12.641Z,78.03
2018-03-26T19:12:42.078Z,76.70
2018-03-26T19:15:11.284Z,73.37
2018-03-26T19:17:40.427Z,76.87
2018-03-26T19:20:09.601Z,65.57
2018-03-26T19:22:38.746Z,62.73
2018-03-26T19:25:07.907Z,59.00
2018-03-26T19:27:37.051Z,65.57
2018-03-26T19:30:06.211Z,60.30
2018-03-26T19:32:35.414Z,54.73
2018-03-26T19:35:04.555Z,55.73
2018-03-26T19:37:33.732Z,52.43
2018-03-26T19:40:02.896Z,49.30
2018-03-26T19:42:32.038Z,51.90
2018-03-26T19:45:01.180Z,52.10
2018-03-26T19:47:30.367Z,50.73
2018-03-26T19:49:59.513Z,48.17
2018-03-26T19:52:28.650Z,46.90
2018-03-26T19:54:57.822Z,44.83
2018-03-26T19:57:26.965Z,45.57
2018-03-26T19:59:56.118Z,45.33
2018-03-26T20:02:25.322Z,49.30
2018-03-26T20:04:54.483Z,49.93
2018-03-26T20:07:23.637Z,49.17
2018-03-26T20:09:52.818Z,52.13
2018-03-26T20:12:22.006Z,51.80
2018-03-26T20:14:51.155Z,52.50
2018-03-26T20:17:20.323Z,56.40
2018-03-26T20:19:49.487Z,52.80
2018-03-26T20:22:18.638Z,54.17
2018-03-26T20:24:47.825Z,53.23
2018-03-26T20:27:16.991Z,54.20
2018-03-26T20:29:46.127Z,53.77
2018-03-26T20:32:15.325Z,49.10
2018-03-26T20:34:44.475Z,51.60
2018-03-26T20:37:13.661Z,51.30
2018-03-26T20:39:42.805Z,53.50
2018-03-26T20:42:11.955Z,53.00
2018-03-26T20:44:41.126Z,51.70
2018-03-26T20:47:10.273Z,53.37
2018-03-26T20:49:39.450Z,54.47
2018-03-26T20:52:08.607Z,54.30
2018-03-26T20:54:37.754Z,64.90
2018-03-26T20:57:06.930Z,65.30
2018-03-26T20:59:36.107Z,69.47
2018-03-26T21:02:05.245Z,66.17
2018-03-26T21:04:34.430Z,69.70
2018-03-26T21:07:03.584Z,67.10
2018-03-26T21:09:32.765Z,65.47
2018-03-26T21:12:03.774Z,66.60
2018-03-26T21:14:32.913Z,67.50
2018-03-26T21:17:02.581Z,68.00
2018-03-26T21:19:31.836Z,72.33
2018-03-26T21:22:01.020Z,71.57
2018-03-26T21:24:30.215Z,65.07
2018-03-26T21:26:59.382Z,65.47
2018-03-26T21:29:28.546Z,61.97
2018-03-26T21:31:57.694Z,65.83
2018-03-26T21:34:26.870Z,61.27
2018-03-26T21:36:56.041Z,67.30
2018-03-26T21:39:25.174Z,64.90
2018-03-26T21:41:54.365Z,63.43
2018-03-26T21:44:23.510Z,65.07
2018-03-26T21:46:52.654Z,64.17
2018-03-26T21:49:21.826Z,65.50
2018-03-26T21:51:50.994Z,63.70
2018-03-26T21:54:20.142Z,63.43
2018-03-26T21:56:49.297Z,62.07
2018-03-26T21:59:18.476Z,58.67
2018-03-26T22:01:47.626Z,57.60
2018-03-26T22:04:16.893Z,56.80
2018-03-26T22:06:46.082Z,57.93
2018-03-26T22:09:15.270Z,56.00
2018-03-26T22:11:44.415Z,52.87
2018-03-26T22:14:13.618Z,58.17
2018-03-26T22:16:42.781Z,54.40
2018-03-26T22:19:11.970Z,57.37
2018-03-26T22:21:41.202Z,54.30
2018-03-26T22:24:10.344Z,53.17
2018-03-26T22:26:39.495Z,54.30
2018-03-26T22:29:08.692Z,55.43
2018-03-26T22:31:37.953Z,54.27
2018-03-26T22:34:07.099Z,55.80
2018-03-26T22:36:36.262Z,52.87
2018-03-26T22:39:05.402Z,52.90
2018-03-26T22:41:34.562Z,56.27
2018-03-26T22:44:03.705Z,54.73
2018-03-26T22:46:32.846Z,51.97
2018-03-26T22:49:02.038Z,50.37
2018-03-26T22:51:31.182Z,53.10
2018-03-26T22:54:00.324Z,54.47
2018-03-26T22:56:29.490Z,53.27
2018-03-26T22:58:58.624Z,53.60
2018-03-26T23:01:27.774Z,53.90
2018-03-26T23:03:56.946Z,55.30
2018-03-26T23:06:26.101Z,52.27
2018-03-26T23:08:55.237Z,54.23
2018-03-26T23:11:24.397Z,55.60
2018-03-26T23:13:53.556Z,54.90
2018-03-26T23:16:22.704Z,56.03
2018-03-26T23:18:51.871Z,53.10
2018-03-26T23:21:21.163Z,58.27
2018-03-26T23:23:50.363Z,58.17
2018-03-26T23:26:19.933Z,57.50
2018-03-26T23:28:49.072Z,55.33
2018-03-26T23:31:18.213Z,59.80
2018-03-26T23:33:47.425Z,60.17
2018-03-26T23:36:16.620Z,63.47
2018-03-26T23:38:45.733Z,66.27
2018-03-26T23:41:14.882Z,68.00
2018-03-26T23:43:44.031Z,66.53
2018-03-26T23:46:13.194Z,64.00
2018-03-26T23:48:42.344Z,69.00
2018-03-26T23:51:11.524Z,64.70
2018-03-26T23:53:40.673Z,68.30
2018-03-26T23:56:09.810Z,65.73
2018-03-26T23:58:38.937Z,67.67
